createdAt,value
2023-02-19T00:02:54.346Z,10.00
2023-02-19T00:06:55.954Z,10.00
2023-02-19T00:11:05.516Z,9.90
2023-02-19T00:15:07.457Z,9.90
2023-02-19T00:19:13.278Z,9.90
2023-02-19T00:23:14.946Z,9.90
2023-02-19T00:27:16.586Z,9.90
2023-02-19T00:31:20.536Z,9.90
2023-02-19T00:35:22.555Z,9.90
2023-02-19T00:39:24.186Z,9.80
2023-02-19T00:43:25.921Z,9.80
2023-02-19T00:47:27.549Z,9.80
2023-02-19T00:51:32.133Z,9.80
2023-02-19T00:55:33.792Z,9.80
2023-02-19T00:59:36.734Z,9.80
2023-02-19T01:03:39.916Z,9.80
2023-02-19T01:07:41.590Z,9.80
2023-02-19T01:11:43.238Z,9.80
2023-02-19T01:15:45.148Z,9.80
2023-02-19T01:19:46.897Z,9.80
2023-02-19T01:23:50.224Z,9.80
2023-02-19T01:27:51.858Z,9.80
2023-02-19T01:31:53.554Z,9.80
2023-02-19T01:35:55.354Z,9.90
2023-02-19T01:39:57.152Z,9.80
2023-02-19T01:44:03.763Z,9.90
2023-02-19T01:48:19.491Z,9.80
2023-02-19T01:52:30.757Z,9.80
2023-02-19T01:56:35.951Z,9.80
2023-02-19T02:00:37.779Z,9.80
2023-02-19T02:04:39.467Z,9.80
2023-02-19T02:09:00.156Z,9.90
2023-02-19T02:13:02.030Z,9.80
2023-02-19T02:17:10.260Z,9.90
2023-02-19T02:21:14.630Z,9.80
2023-02-19T02:25:28.105Z,9.80
2023-02-19T02:30:06.523Z,9.80
2023-02-19T02:34:16.104Z,9.80
2023-02-19T02:38:20.515Z,9.80
2023-02-19T02:42:28.149Z,9.80
2023-02-19T02:46:38.193Z,9.80
2023-02-19T02:50:52.993Z,9.80
2023-02-19T02:55:03.653Z,9.80
2023-02-19T02:59:08.141Z,9.70
2023-02-19T03:03:09.946Z,9.80
2023-02-19T03:07:12.570Z,9.70
2023-02-19T03:11:33.417Z,9.70
2023-02-19T03:16:02.080Z,9.70
2023-02-19T03:20:09.357Z,9.70
2023-02-19T03:24:32.064Z,9.70
2023-02-19T03:28:56.571Z,9.70
2023-02-19T03:33:08.050Z,9.70
2023-02-19T03:37:27.169Z,9.60
2023-02-19T03:41:40.838Z,9.70
2023-02-19T03:46:08.263Z,9.70
2023-02-19T03:50:25.240Z,9.70
2023-02-19T03:54:43.649Z,9.60
2023-02-19T03:58:58.855Z,9.70
2023-02-19T04:03:06.061Z,9.70
2023-02-19T04:07:08.154Z,9.70
2023-02-19T04:11:11.819Z,9.70
2023-02-19T04:15:20.504Z,9.70
2023-02-19T04:19:25.781Z,9.70
2023-02-19T04:23:30.539Z,9.60
2023-02-19T04:27:32.769Z,9.60
2023-02-19T04:31:36.268Z,9.50
2023-02-19T04:35:37.998Z,9.60
2023-02-19T04:39:39.634Z,9.50
2023-02-19T04:43:41.286Z,9.50
2023-02-19T04:47:42.934Z,9.50
2023-02-19T04:51:44.597Z,9.50
2023-02-19T04:55:47.957Z,9.50
2023-02-19T04:59:49.603Z,9.50
2023-02-19T05:03:51.901Z,9.50
2023-02-19T05:07:53.992Z,9.40
2023-02-19T05:11:55.607Z,9.40
2023-02-19T05:16:00.614Z,9.40
2023-02-19T05:20:02.301Z,9.40
2023-02-19T05:24:04.290Z,9.30
2023-02-19T05:28:17.997Z,9.30
2023-02-19T05:32:19.683Z,9.30
2023-02-19T05:36:21.848Z,9.30
2023-02-19T05:40:23.505Z,9.30
2023-02-19T05:44:25.727Z,9.30
2023-02-19T05:48:27.369Z,9.20
2023-02-19T05:52:28.974Z,9.20
2023-02-19T05:56:39.628Z,9.20
2023-02-19T06:00:41.254Z,9.30
2023-02-19T06:04:42.892Z,9.20
2023-02-19T06:08:45.099Z,9.10
2023-02-19T06:12:46.724Z,9.10
2023-02-19T06:16:48.382Z,9.20
2023-02-19T06:20:50.030Z,9.20
2023-02-19T06:24:51.668Z,9.10
2023-02-19T06:28:53.981Z,9.10
2023-02-19T06:32:55.662Z,9.10
2023-02-19T06:36:58.347Z,9.10
2023-02-19T06:41:04.943Z,9.10
2023-02-19T06:45:07.121Z,9.00
2023-02-19T06:49:08.827Z,9.00
2023-02-19T06:53:11.589Z,9.00
2023-02-19T06:57:13.278Z,9.00
2023-02-19T07:01:14.974Z,9.00
2023-02-19T07:05:16.701Z,9.00
2023-02-19T07:09:18.349Z,8.90
2023-02-19T07:13:19.929Z,9.10
2023-02-19T07:17:21.582Z,9.00
2023-02-19T07:21:23.559Z,9.00
2023-02-19T07:25:25.238Z,8.90
2023-02-19T07:29:26.867Z,9.00
2023-02-19T07:33:28.481Z,8.90
2023-02-19T07:37:30.103Z,9.00
2023-02-19T07:41:31.868Z,9.00
2023-02-19T07:45:33.501Z,9.00
2023-02-19T07:49:35.184Z,9.00
2023-02-19T07:53:36.828Z,9.00
2023-02-19T07:57:38.449Z,9.00
2023-02-19T08:01:58.686Z,8.90
2023-02-19T08:06:00.319Z,9.00
2023-02-19T08:10:21.825Z,8.90
2023-02-19T08:14:27.432Z,9.00
2023-02-19T08:18:31.719Z,9.00
2023-02-19T08:22:33.342Z,9.10
2023-02-19T08:26:35.478Z,9.10
2023-02-19T08:30:38.391Z,9.20
2023-02-19T08:34:40.122Z,9.20
2023-02-19T08:38:41.841Z,9.20
2023-02-19T08:42:43.573Z,9.30
2023-02-19T08:46:45.182Z,9.30
2023-02-19T08:50:56.897Z,9.40
2023-02-19T08:54:58.722Z,9.50
2023-02-19T08:59:00.664Z,9.50
2023-02-19T09:03:02.334Z,9.60
2023-02-19T09:07:07.600Z,9.60
2023-02-19T09:11:09.737Z,9.80
2023-02-19T09:15:12.360Z,9.80
2023-02-19T09:19:13.997Z,9.80
2023-02-19T09:23:15.629Z,9.90
2023-02-19T09:27:19.552Z,9.80
2023-02-19T09:31:21.286Z,9.80
2023-02-19T09:35:23.006Z,9.70
2023-02-19T09:39:24.688Z,9.80
2023-02-19T09:43:29.019Z,9.80
2023-02-19T09:47:32.706Z,9.70
2023-02-19T09:51:37.697Z,9.60
2023-02-19T09:55:42.350Z,9.70
2023-02-19T10:00:10.989Z,9.60
2023-02-19T10:04:12.590Z,9.40
2023-02-19T10:08:19.869Z,9.40
2023-02-19T10:12:25.101Z,9.40
2023-02-19T10:16:28.070Z,9.50
2023-02-19T10:20:30.047Z,9.60
2023-02-19T10:24:32.277Z,9.70
2023-02-19T10:28:35.019Z,9.80
2023-02-19T10:32:36.723Z,9.80
2023-02-19T10:36:44.837Z,9.80
2023-02-19T10:40:47.145Z,9.80
2023-02-19T10:44:58.331Z,9.80
2023-02-19T10:49:06.161Z,9.80
2023-02-19T10:53:24.537Z,9.70
2023-02-19T10:57:30.398Z,9.80
2023-02-19T11:01:32.184Z,9.80
2023-02-19T11:05:34.895Z,9.70
2023-02-19T11:09:42.735Z,9.60
2023-02-19T11:13:44.427Z,9.80
2023-02-19T11:17:53.899Z,9.80
2023-02-19T11:21:56.494Z,9.80
2023-02-19T11:26:06.356Z,9.90
2023-02-19T11:30:30.251Z,9.80
2023-02-19T11:34:34.778Z,9.90
2023-02-19T11:38:36.458Z,9.90
2023-02-19T11:42:45.690Z,9.80
2023-02-19T11:47:01.192Z,9.70
2023-02-19T11:51:14.567Z,9.60
2023-02-19T11:55:53.548Z,9.50
2023-02-19T12:00:23.064Z,9.50
2023-02-19T12:04:58.259Z,9.80
2023-02-19T12:09:24.818Z,9.90
2023-02-19T12:13:58.392Z,10.20
2023-02-19T12:18:23.258Z,10.10
2023-02-19T12:22:30.952Z,10.10
2023-02-19T12:27:05.082Z,10.10
2023-02-19T12:31:35.138Z,10.20
2023-02-19T12:35:46.652Z,10.10
2023-02-19T12:40:25.760Z,10.10
2023-02-19T12:44:58.430Z,10.10
2023-02-19T12:49:06.906Z,10.20
2023-02-19T12:53:22.900Z,10.20
2023-02-19T12:57:28.977Z,10.20
2023-02-19T13:01:57.995Z,10.20
2023-02-19T13:06:04.138Z,10.20
2023-02-19T13:10:11.321Z,10.20
2023-02-19T13:14:45.012Z,10.20
2023-02-19T13:18:48.678Z,10.10
2023-02-19T13:23:19.245Z,10.10
2023-02-19T13:27:54.204Z,10.20
2023-02-19T13:32:17.438Z,10.20
2023-02-19T13:36:29.560Z,10.30
2023-02-19T13:40:37.350Z,10.20
2023-02-19T13:44:41.494Z,10.10
2023-02-19T13:48:44.354Z,10.00
2023-02-19T13:52:46.196Z,10.20
2023-02-19T13:56:48.414Z,10.10
2023-02-19T14:00:53.342Z,10.10
2023-02-19T14:04:59.901Z,10.10
2023-02-19T14:09:01.543Z,10.00
2023-02-19T14:13:03.206Z,10.00
2023-02-19T14:17:29.309Z,10.20
2023-02-19T14:21:43.269Z,10.20
2023-02-19T14:25:48.915Z,10.20
2023-02-19T14:29:50.889Z,10.30
2023-02-19T14:33:54.879Z,10.20
2023-02-19T14:37:57.800Z,10.20
2023-02-19T14:42:04.568Z,10.10
2023-02-19T14:46:14.633Z,10.10
2023-02-19T14:50:30.522Z,10.00
2023-02-19T14:55:01.105Z,10.00
2023-02-19T14:59:13.213Z,9.90
2023-02-19T15:03:28.896Z,9.80
2023-02-19T15:07:33.751Z,9.90
2023-02-19T15:11:35.870Z,9.90
2023-02-19T15:15:43.019Z,9.80
2023-02-19T15:19:44.662Z,9.90
2023-02-19T15:23:46.450Z,9.80
2023-02-19T15:27:48.393Z,9.80
2023-02-19T15:31:54.139Z,9.80
2023-02-19T15:35:59.896Z,9.80
2023-02-19T15:40:07.217Z,9.70
2023-02-19T15:44:37.301Z,9.70
2023-02-19T15:48:51.038Z,9.60
2023-02-19T15:53:16.589Z,9.50
2023-02-19T15:57:24.938Z,9.40
2023-02-19T16:01:32.526Z,9.30
2023-02-19T16:05:39.752Z,9.30
2023-02-19T16:09:41.313Z,9.40
2023-02-19T16:13:42.922Z,9.30
2023-02-19T16:17:44.986Z,9.30
2023-02-19T16:21:47.078Z,9.30
2023-02-19T16:25:48.774Z,9.20
2023-02-19T16:29:51.392Z,9.20
2023-02-19T16:33:53.026Z,9.20
2023-02-19T16:37:59.383Z,9.10
2023-02-19T16:42:01.990Z,9.00
2023-02-19T16:46:03.734Z,9.00
2023-02-19T16:50:14.074Z,8.80
2023-02-19T16:54:15.689Z,8.70
2023-02-19T16:58:17.725Z,8.70
2023-02-19T17:02:22.216Z,8.70
2023-02-19T17:06:23.925Z,8.70
2023-02-19T17:10:27.267Z,8.70
2023-02-19T17:14:28.880Z,8.60
2023-02-19T17:18:30.589Z,8.60
2023-02-19T17:22:32.207Z,8.60
2023-02-19T17:26:34.389Z,8.50
2023-02-19T17:30:37.766Z,8.50
2023-02-19T17:34:40.552Z,8.50
2023-02-19T17:38:42.186Z,8.40
2023-02-19T17:42:44.292Z,8.40
2023-02-19T17:46:48.021Z,8.40
2023-02-19T17:50:50.556Z,8.30
2023-02-19T17:54:52.154Z,8.20
2023-02-19T17:58:57.664Z,8.20
2023-02-19T18:02:59.346Z,8.00
2023-02-19T18:07:02.707Z,8.00
2023-02-19T18:11:06.967Z,8.00
2023-02-19T18:15:11.118Z,8.00
2023-02-19T18:19:12.921Z,8.00
2023-02-19T18:23:14.667Z,8.00
2023-02-19T18:27:16.802Z,7.90
2023-02-19T18:31:18.498Z,8.00
2023-02-19T18:35:21.285Z,7.90
2023-02-19T18:39:22.965Z,7.90
2023-02-19T18:43:24.617Z,7.80
2023-02-19T18:47:27.076Z,7.80
2023-02-19T18:51:28.730Z,7.70
2023-02-19T18:55:30.341Z,7.70
2023-02-19T18:59:32.390Z,7.80
2023-02-19T19:03:34.417Z,7.80
2023-02-19T19:07:36.115Z,7.70
2023-02-19T19:11:38.687Z,7.60
2023-02-19T19:15:41.263Z,7.60
2023-02-19T19:19:44.952Z,7.50
2023-02-19T19:23:47.412Z,7.50
2023-02-19T19:27:52.846Z,7.50
2023-02-19T19:31:54.611Z,7.60
2023-02-19T19:35:56.232Z,7.50
2023-02-19T19:39:57.948Z,7.50
2023-02-19T19:44:03.286Z,7.60
2023-02-19T19:48:05.183Z,7.50
2023-02-19T19:52:08.007Z,7.50
2023-02-19T19:56:09.643Z,7.50
2023-02-19T20:00:15.958Z,7.50
2023-02-19T20:04:19.738Z,7.50
2023-02-19T20:08:21.570Z,7.50
2023-02-19T20:12:23.200Z,7.50
2023-02-19T20:16:26.752Z,7.50
2023-02-19T20:20:29.553Z,7.50
2023-02-19T20:24:31.525Z,7.40
2023-02-19T20:28:34.005Z,7.50
2023-02-19T20:32:35.689Z,7.40
2023-02-19T20:36:43.084Z,7.50
2023-02-19T20:40:44.817Z,7.50
2023-02-19T20:44:46.430Z,7.40
2023-02-19T20:48:50.456Z,7.30
2023-02-19T20:52:53.449Z,7.20
2023-02-19T20:56:58.168Z,7.10
2023-02-19T21:00:59.808Z,6.90
2023-02-19T21:05:01.894Z,6.80
2023-02-19T21:09:04.201Z,6.70
2023-02-19T21:13:05.874Z,6.50
2023-02-19T21:17:07.512Z,6.40
2023-02-19T21:21:09.173Z,6.30
2023-02-19T21:25:11.064Z,6.20
2023-02-19T21:29:18.902Z,6.10
2023-02-19T21:33:20.523Z,6.10
2023-02-19T21:37:22.341Z,6.00
2023-02-19T21:41:28.038Z,6.00
2023-02-19T21:45:29.819Z,6.00
2023-02-19T21:49:31.686Z,5.90
2023-02-19T21:53:33.345Z,5.80
2023-02-19T21:57:35.006Z,5.70
2023-02-19T22:01:38.656Z,5.70
2023-02-19T22:05:40.333Z,5.70
2023-02-19T22:09:41.956Z,5.60
2023-02-19T22:13:43.629Z,5.50
2023-02-19T22:17:46.335Z,5.40
2023-02-19T22:21:47.984Z,5.30
2023-02-19T22:25:49.724Z,5.30
2023-02-19T22:29:51.382Z,5.20
2023-02-19T22:33:53.631Z,5.10
2023-02-19T22:37:55.313Z,5.10
2023-02-19T22:41:56.948Z,5.10
2023-02-19T22:45:58.571Z,5.20
2023-02-19T22:50:00.303Z,5.20
2023-02-19T22:54:01.947Z,5.10
2023-02-19T22:58:03.538Z,5.00
2023-02-19T23:02:05.126Z,4.90
2023-02-19T23:06:06.769Z,4.70
2023-02-19T23:10:09.384Z,4.60
2023-02-19T23:14:11.489Z,4.50
2023-02-19T23:18:13.126Z,4.50
2023-02-19T23:22:14.778Z,4.50
2023-02-19T23:26:16.958Z,4.50
2023-02-19T23:30:19.429Z,4.50
2023-02-19T23:34:21.871Z,4.40
2023-02-19T23:38:23.622Z,4.30
2023-02-19T23:42:25.524Z,4.20
2023-02-19T23:46:27.208Z,4.20
2023-02-19T23:50:28.867Z,4.10
2023-02-19T23:54:31.182Z,4.20
2023-02-19T23:58:33.125Z,4.10
